createdAt,value
2022-09-10T05:00:08.531Z,16.40
2022-09-10T05:05:15.340Z,16.40
2022-09-10T05:10:21.861Z,16.30
2022-09-10T05:15:25.730Z,16.30
2022-09-10T05:20:31.160Z,16.30
2022-09-10T05:25:35.419Z,16.40
2022-09-10T05:30:39.001Z,16.40
2022-09-10T05:35:44.180Z,16.40
2022-09-10T05:40:48.175Z,16.40
2022-09-10T05:45:52.804Z,16.30
2022-09-10T05:50:58.270Z,16.30
2022-09-10T05:56:02.317Z,16.30
2022-09-10T06:01:06.757Z,16.20
2022-09-10T06:06:12.778Z,16.20
2022-09-10T06:11:17.820Z,16.10
2022-09-10T06:16:21.687Z,16.10
2022-09-10T06:21:28.374Z,16.00
2022-09-10T06:26:33.312Z,15.90
2022-09-10T06:31:37.681Z,15.90
2022-09-10T06:36:43.758Z,15.90
2022-09-10T06:41:49.893Z,15.90
2022-09-10T06:47:55.431Z,15.90
2022-09-10T06:52:31.647Z,15.90
2022-09-10T06:57:35.743Z,16.00
2022-09-10T07:02:39.447Z,16.00
2022-09-10T07:07:44.926Z,16.10
2022-09-10T07:12:50.196Z,16.20
2022-09-10T07:17:55.094Z,16.20
2022-09-10T07:23:00.826Z,16.30
2022-09-10T07:28:06.554Z,16.40
2022-09-10T07:33:11.515Z,16.50
2022-09-10T07:38:20.642Z,16.70
2022-09-10T07:43:24.874Z,16.90
2022-09-10T07:48:30.060Z,17.10
2022-09-10T07:53:35.749Z,17.30
2022-09-10T07:58:40.829Z,17.50
2022-09-10T08:03:45.122Z,17.60
2022-09-10T08:08:50.744Z,17.80
2022-09-10T08:13:56.878Z,18.00
2022-09-10T08:19:01.342Z,18.10
2022-09-10T08:24:08.829Z,18.40
2022-09-10T08:29:13.868Z,18.70
2022-09-10T08:34:17.720Z,18.90
2022-09-10T08:39:24.195Z,19.10
2022-09-10T08:44:33.855Z,19.20
2022-09-10T08:49:42.192Z,19.20
2022-09-10T08:54:59.353Z,19.30
2022-09-10T09:00:04.527Z,19.30
2022-09-10T09:05:17.201Z,19.40
2022-09-10T09:10:36.403Z,19.70
2022-09-10T09:15:51.614Z,20.10
2022-09-10T09:20:58.046Z,20.50
2022-09-10T09:26:10.079Z,20.90
2022-09-10T09:31:17.416Z,21.30
2022-09-10T09:36:30.233Z,21.70
2022-09-10T09:41:43.460Z,22.00
2022-09-10T09:46:49.386Z,22.30
2022-09-10T09:51:53.355Z,22.60
2022-09-10T09:57:00.118Z,22.80
2022-09-10T10:02:12.721Z,23.20
2022-09-10T10:07:25.618Z,23.80
2022-09-10T10:12:32.972Z,24.30
2022-09-10T10:17:38.975Z,24.70
2022-09-10T10:22:43.796Z,24.70
2022-09-10T10:27:51.352Z,24.70
2022-09-10T10:32:57.102Z,24.70
2022-09-10T10:38:29.093Z,24.90
2022-09-10T10:43:44.808Z,25.40
2022-09-10T10:49:03.719Z,26.10
2022-09-10T10:54:29.039Z,26.60
2022-09-10T10:59:53.130Z,26.50
2022-09-10T11:04:58.812Z,25.90
2022-09-10T11:10:07.220Z,25.40
2022-09-10T11:15:23.350Z,25.00
2022-09-10T11:20:33.012Z,25.00
2022-09-10T11:25:46.194Z,25.40
2022-09-10T11:30:59.259Z,25.50
2022-09-10T11:36:11.760Z,25.10
2022-09-10T11:41:22.144Z,24.70
2022-09-10T11:46:32.882Z,24.80
2022-09-10T11:51:39.197Z,25.30
2022-09-10T11:56:59.682Z,25.60
2022-09-10T12:02:27.899Z,25.70
2022-09-10T12:07:45.333Z,25.50
2022-09-10T12:12:51.098Z,25.80
2022-09-10T12:17:59.858Z,26.00
2022-09-10T12:23:03.989Z,26.20
2022-09-10T12:28:08.253Z,26.90
2022-09-10T12:33:58.166Z,27.30
2022-09-10T12:39:25.106Z,27.20
2022-09-10T12:44:52.493Z,27.60
2022-09-10T12:49:59.544Z,27.80
2022-09-10T12:55:13.721Z,27.60
2022-09-10T13:00:23.050Z,27.30
2022-09-10T13:05:32.273Z,27.40
2022-09-10T13:10:37.005Z,27.40
2022-09-10T13:15:41.723Z,27.20
2022-09-10T13:20:46.757Z,27.00
2022-09-10T13:25:51.733Z,26.80
2022-09-10T13:31:02.876Z,26.50
2022-09-10T13:36:18.119Z,26.50
2022-09-10T13:41:57.097Z,26.60
2022-09-10T13:47:05.776Z,26.80
2022-09-10T13:52:15.980Z,27.10
2022-09-10T13:57:23.197Z,26.80
2022-09-10T14:02:42.524Z,26.90
2022-09-10T14:07:47.631Z,27.40
2022-09-10T14:12:52.595Z,27.10
2022-09-10T14:17:58.872Z,26.80
2022-09-10T14:23:05.844Z,26.80
2022-09-10T14:28:23.624Z,27.40
2022-09-10T14:33:32.664Z,27.80
2022-09-10T14:38:40.362Z,27.70
2022-09-10T14:43:44.013Z,27.50
2022-09-10T14:49:03.411Z,27.30
2022-09-10T14:54:11.841Z,27.00
2022-09-10T14:59:17.671Z,26.90
2022-09-10T15:04:23.902Z,26.80
2022-09-10T15:09:31.306Z,26.70
2022-09-10T15:14:35.710Z,26.50
2022-09-10T15:19:39.268Z,26.20
2022-09-10T15:25:07.966Z,25.90
2022-09-10T15:30:09.106Z,25.70
2022-09-10T15:35:12.951Z,25.50
2022-09-10T15:40:18.011Z,25.30
2022-09-10T15:45:21.565Z,25.30
2022-09-10T15:50:25.093Z,25.20
2022-09-10T15:55:30.983Z,25.00
2022-09-10T16:00:37.341Z,24.90
2022-09-10T16:05:40.842Z,24.80
2022-09-10T16:10:45.868Z,24.80
2022-09-10T16:15:59.309Z,24.80
2022-09-10T16:21:09.377Z,24.80
2022-09-10T16:26:17.039Z,24.70
2022-09-10T16:31:22.596Z,24.60
2022-09-10T16:36:26.477Z,24.60
2022-09-10T16:41:33.014Z,24.50
2022-09-10T16:46:37.225Z,24.40
2022-09-10T16:51:42.161Z,24.40
2022-09-10T16:56:48.418Z,24.40
2022-09-10T17:01:53.243Z,24.40
2022-09-10T17:06:57.426Z,24.30
2022-09-10T17:12:02.379Z,24.20
2022-09-10T17:17:06.014Z,24.20
2022-09-10T17:22:10.636Z,24.10
2022-09-10T17:27:15.536Z,24.00
2022-09-10T17:32:19.045Z,23.90
2022-09-10T17:37:22.806Z,23.80
2022-09-10T17:42:27.773Z,23.70
2022-09-10T17:47:31.458Z,23.60
2022-09-10T17:52:35.390Z,23.50
2022-09-10T17:57:40.338Z,23.40
2022-09-10T18:02:44.081Z,23.30
2022-09-10T18:07:47.687Z,23.10
2022-09-10T18:12:55.114Z,22.90
2022-09-10T18:18:01.455Z,22.80
2022-09-10T18:23:05.032Z,22.60
2022-09-10T18:28:11.127Z,22.50
2022-09-10T18:33:14.690Z,22.30
2022-09-10T18:38:18.249Z,22.20
2022-09-10T18:43:23.299Z,22.10
2022-09-10T18:48:26.811Z,21.90
2022-09-10T18:53:32.083Z,21.80
2022-09-10T18:58:37.420Z,21.60
2022-09-10T19:03:43.106Z,21.40
2022-09-10T19:08:52.608Z,21.20
2022-09-10T19:13:58.176Z,21.20
2022-09-10T19:19:03.405Z,21.10
2022-09-10T19:24:07.182Z,21.10
2022-09-10T19:29:16.906Z,21.10
2022-09-10T19:34:22.693Z,21.00
2022-09-10T19:39:26.182Z,20.90
2022-09-10T19:44:31.123Z,20.80
2022-09-10T19:49:35.494Z,20.60
2022-09-10T19:54:39.110Z,20.60
2022-09-10T19:59:44.100Z,20.60
2022-09-10T20:04:47.690Z,20.60
2022-09-10T20:09:51.207Z,20.50
2022-09-10T20:14:56.134Z,20.50
2022-09-10T20:19:59.631Z,20.40
2022-09-10T20:25:06.021Z,20.40
2022-09-10T20:30:11.918Z,20.40
2022-09-10T20:35:15.757Z,20.50
2022-09-10T20:40:21.964Z,20.50
2022-09-10T20:45:27.521Z,20.50
2022-09-10T20:50:31.041Z,20.50
2022-09-10T20:55:34.668Z,20.50
2022-09-10T21:00:39.829Z,20.40
2022-09-10T21:05:50.101Z,20.40
2022-09-10T21:10:53.591Z,20.40
2022-09-10T21:16:06.245Z,20.30
2022-09-10T21:21:11.575Z,20.30
2022-09-10T21:26:17.312Z,20.30
2022-09-10T21:31:22.355Z,20.20
2022-09-10T21:36:26.124Z,20.10
2022-09-10T21:41:32.279Z,20.10
2022-09-10T21:46:37.649Z,20.00
2022-09-10T21:51:43.174Z,20.00
2022-09-10T21:56:46.724Z,20.00
2022-09-10T22:01:51.756Z,19.90
2022-09-10T22:06:55.775Z,19.80
2022-09-10T22:11:59.305Z,19.80
2022-09-10T22:17:05.438Z,19.80
2022-09-10T22:22:10.403Z,19.70
2022-09-10T22:27:13.940Z,19.60
